createdAt,value
2023-04-09T00:02:00.869Z,95537.66
2023-04-09T00:04:29.159Z,95522.31
2023-04-09T00:06:57.461Z,95499.66
2023-04-09T00:09:25.931Z,95553.75
2023-04-09T00:11:54.207Z,95548.56
2023-04-09T00:14:22.540Z,95552.38
2023-04-09T00:16:51.177Z,95547.59
2023-04-09T00:19:20.820Z,95548.19
2023-04-09T00:21:49.563Z,95551.69
2023-04-09T00:24:17.904Z,95555.91
2023-04-09T00:26:46.570Z,95552.44
2023-04-09T00:29:14.802Z,95556.03
2023-04-09T00:31:43.144Z,95551.06
2023-04-09T00:34:11.662Z,95558.44
2023-04-09T00:36:41.400Z,95551.50
2023-04-09T00:39:09.684Z,95545.97
2023-04-09T00:41:37.985Z,95493.84
2023-04-09T00:44:06.217Z,95543.59
2023-04-09T00:46:34.505Z,95552.91
2023-04-09T00:49:02.932Z,95550.59
2023-04-09T00:51:31.560Z,95556.91
2023-04-09T00:54:01.303Z,95558.31
2023-04-09T00:56:31.312Z,95481.75
2023-04-09T00:58:59.574Z,95544.06
2023-04-09T01:01:27.866Z,95512.56
2023-04-09T01:03:56.646Z,95515.56
2023-04-09T01:06:34.475Z,95521.06
2023-04-09T01:09:10.586Z,95562.00
2023-04-09T01:11:44.774Z,95573.00
2023-04-09T01:14:21.728Z,95563.41
2023-04-09T01:16:56.546Z,95552.19
2023-04-09T01:19:38.908Z,95553.19
2023-04-09T01:22:15.544Z,95554.88
2023-04-09T01:24:58.358Z,95555.38
2023-04-09T01:27:35.909Z,95549.03
2023-04-09T01:30:06.688Z,95557.16
2023-04-09T01:32:38.263Z,95550.88
2023-04-09T01:35:08.520Z,95538.31
2023-04-09T01:37:37.637Z,95515.25
2023-04-09T01:40:07.284Z,95545.00
2023-04-09T01:42:37.898Z,95541.56
2023-04-09T01:45:09.378Z,95549.63
2023-04-09T01:47:38.247Z,95472.09
2023-04-09T01:50:07.684Z,95538.00
2023-04-09T01:52:36.685Z,95543.53
2023-04-09T01:55:05.278Z,95535.72
2023-04-09T01:57:33.648Z,95547.72
2023-04-09T02:00:02.051Z,95548.88
2023-04-09T02:02:37.896Z,95537.31
2023-04-09T02:05:11.748Z,95507.84
2023-04-09T02:07:44.096Z,95547.81
2023-04-09T02:10:17.450Z,95544.84
2023-04-09T02:12:51.305Z,95548.41
2023-04-09T02:15:20.931Z,95551.94
2023-04-09T02:17:50.865Z,95558.44
2023-04-09T02:20:19.986Z,95553.94
2023-04-09T02:22:48.611Z,95559.91
2023-04-09T02:25:16.943Z,95549.72
2023-04-09T02:27:45.257Z,95553.97
2023-04-09T02:30:13.692Z,95543.91
2023-04-09T02:32:42.032Z,95545.72
2023-04-09T02:35:11.822Z,95544.13
2023-04-09T02:37:40.058Z,95532.19
2023-04-09T02:40:09.348Z,95548.81
2023-04-09T02:42:37.671Z,95544.66
2023-04-09T02:45:06.570Z,95542.97
2023-04-09T02:47:34.876Z,95527.19
2023-04-09T02:50:03.163Z,95548.66
2023-04-09T02:52:32.892Z,95538.91
2023-04-09T02:55:01.327Z,95532.91
2023-04-09T02:57:30.507Z,95533.72
2023-04-09T02:59:58.758Z,95525.66
2023-04-09T03:02:27.452Z,95544.88
2023-04-09T03:04:55.871Z,95533.91
2023-04-09T03:07:24.247Z,95548.03
2023-04-09T03:09:53.930Z,95513.28
2023-04-09T03:12:22.218Z,95543.41
2023-04-09T03:14:50.545Z,95538.28
2023-04-09T03:17:18.940Z,95542.75
2023-04-09T03:19:47.298Z,95535.00
2023-04-09T03:22:15.484Z,95536.28
2023-04-09T03:24:43.848Z,95535.81
2023-04-09T03:27:13.512Z,95521.75
2023-04-09T03:29:41.815Z,95518.69
2023-04-09T03:32:10.136Z,95478.19
2023-04-09T03:34:38.483Z,95527.09
2023-04-09T03:37:06.764Z,95531.94
2023-04-09T03:39:34.996Z,95537.84
2023-04-09T03:42:03.602Z,95544.22
2023-04-09T03:44:33.264Z,95542.91
2023-04-09T03:47:01.668Z,95540.72
2023-04-09T03:49:30.113Z,95545.50
2023-04-09T03:51:58.448Z,95545.41
2023-04-09T03:54:27.258Z,95551.69
2023-04-09T03:56:56.383Z,95552.56
2023-04-09T03:59:25.134Z,95551.38
2023-04-09T04:01:54.908Z,95555.38
2023-04-09T04:04:23.884Z,95554.78
2023-04-09T04:06:52.406Z,95558.59
2023-04-09T04:09:20.734Z,95533.84
2023-04-09T04:11:49.039Z,95565.34
2023-04-09T04:14:17.424Z,95564.78
2023-04-09T04:16:45.915Z,95545.56
2023-04-09T04:19:15.656Z,95564.00
2023-04-09T04:21:43.941Z,95529.91
2023-04-09T04:24:12.163Z,95554.66
2023-04-09T04:26:41.578Z,95581.25
2023-04-09T04:29:10.034Z,95572.59
2023-04-09T04:31:38.318Z,95572.75
2023-04-09T04:34:06.700Z,95567.88
2023-04-09T04:36:37.804Z,95573.03
2023-04-09T04:39:06.180Z,95568.66
2023-04-09T04:41:34.469Z,95546.31
2023-04-09T04:44:02.871Z,95570.47
2023-04-09T04:46:31.208Z,95572.16
2023-04-09T04:49:02.498Z,95566.97
2023-04-09T04:51:32.502Z,95570.22
2023-04-09T04:54:02.250Z,95573.00
2023-04-09T04:56:31.631Z,95565.03
2023-04-09T04:58:59.943Z,95571.22
2023-04-09T05:01:28.243Z,95573.78
2023-04-09T05:03:56.850Z,95575.13
2023-04-09T05:06:26.407Z,95574.28
2023-04-09T05:08:58.118Z,95563.16
2023-04-09T05:11:27.923Z,95515.09
2023-04-09T05:13:56.233Z,95578.22
2023-04-09T05:16:25.139Z,95572.94
2023-04-09T05:18:53.784Z,95522.47
2023-04-09T05:21:22.324Z,95579.59
2023-04-09T05:23:50.649Z,95577.16
2023-04-09T05:26:19.039Z,95477.75
2023-04-09T05:28:48.944Z,95580.41
2023-04-09T05:31:17.486Z,95580.13
2023-04-09T05:33:45.988Z,95575.16
2023-04-09T05:36:17.504Z,95557.47
2023-04-09T05:38:47.216Z,95595.16
2023-04-09T05:41:16.596Z,95564.22
2023-04-09T05:43:44.885Z,95597.47
2023-04-09T05:46:14.639Z,95596.97
2023-04-09T05:48:42.978Z,95580.16
2023-04-09T05:51:11.333Z,95594.81
2023-04-09T05:53:39.680Z,95593.31
2023-04-09T05:56:15.732Z,95593.59
2023-04-09T05:58:44.296Z,95596.63
2023-04-09T06:01:12.621Z,95595.09
2023-04-09T06:03:42.541Z,95595.16
2023-04-09T06:06:11.057Z,95597.38
2023-04-09T06:08:39.395Z,95597.13
2023-04-09T06:11:11.117Z,95596.66
2023-04-09T06:13:39.667Z,95589.44
2023-04-09T06:16:08.963Z,95593.66
2023-04-09T06:18:38.229Z,95578.22
2023-04-09T06:21:09.478Z,95585.38
2023-04-09T06:23:38.279Z,95527.84
2023-04-09T06:26:06.769Z,95552.88
2023-04-09T06:28:35.130Z,95592.75
2023-04-09T06:31:04.861Z,95587.53
2023-04-09T06:33:33.171Z,95574.75
2023-04-09T06:36:01.609Z,95599.34
2023-04-09T06:38:31.298Z,95599.84
2023-04-09T06:40:59.583Z,95603.84
2023-04-09T06:43:27.962Z,95596.91
2023-04-09T06:45:56.722Z,95601.56
2023-04-09T06:48:25.131Z,95594.09
2023-04-09T06:50:53.466Z,95602.25
2023-04-09T06:53:21.738Z,95589.97
2023-04-09T06:55:51.486Z,95594.59
2023-04-09T06:58:21.182Z,95586.66
2023-04-09T07:00:49.462Z,95581.06
2023-04-09T07:03:17.876Z,95585.31
2023-04-09T07:05:46.539Z,95593.56
2023-04-09T07:08:14.992Z,95585.56
2023-04-09T07:10:43.357Z,95575.84
2023-04-09T07:13:13.026Z,95580.59
2023-04-09T07:15:42.516Z,95580.91
2023-04-09T07:18:11.086Z,95573.91
2023-04-09T07:20:39.719Z,95573.44
2023-04-09T07:23:08.057Z,95583.03
2023-04-09T07:25:36.624Z,95579.38
2023-04-09T07:28:05.014Z,95569.97
2023-04-09T07:30:34.826Z,95572.78
2023-04-09T07:33:03.117Z,95565.19
2023-04-09T07:35:32.245Z,95566.78
2023-04-09T07:38:00.590Z,95481.34
2023-04-09T07:40:29.000Z,95565.28
2023-04-09T07:42:58.196Z,95558.63
2023-04-09T07:45:26.757Z,95558.47
2023-04-09T07:47:56.503Z,95556.09
2023-04-09T07:50:25.053Z,95552.53
2023-04-09T07:52:53.400Z,95543.66
2023-04-09T07:55:21.851Z,95506.34
2023-04-09T07:57:51.779Z,95543.91
2023-04-09T08:00:20.494Z,95471.53
2023-04-09T08:02:49.117Z,95546.81
2023-04-09T08:05:19.107Z,95547.47
2023-04-09T08:07:47.426Z,95543.84
2023-04-09T08:10:16.543Z,95543.47
2023-04-09T08:12:45.478Z,95549.22
2023-04-09T08:15:13.792Z,95538.41
2023-04-09T08:17:42.130Z,95532.78
2023-04-09T08:20:11.549Z,95527.53
2023-04-09T08:22:42.862Z,95542.59
2023-04-09T08:25:11.378Z,95539.22
2023-04-09T08:27:39.921Z,95543.66
2023-04-09T08:30:09.710Z,95532.25
2023-04-09T08:32:38.131Z,95527.25
2023-04-09T08:35:07.432Z,95527.25
2023-04-09T08:37:35.869Z,95524.25
2023-04-09T08:40:06.235Z,95525.34
2023-04-09T08:42:37.025Z,95521.41
2023-04-09T08:45:06.122Z,95515.22
2023-04-09T08:47:38.240Z,95503.78
2023-04-09T08:50:07.214Z,95498.38
2023-04-09T08:52:36.411Z,95503.03
2023-04-09T08:55:07.322Z,95499.91
2023-04-09T08:57:41.399Z,95509.38
2023-04-09T09:00:10.674Z,95499.78
2023-04-09T09:02:40.080Z,95505.09
2023-04-09T09:05:09.017Z,95496.47
2023-04-09T09:07:37.461Z,95498.69
2023-04-09T09:10:08.200Z,95494.50
2023-04-09T09:12:39.484Z,95476.31
2023-04-09T09:15:27.519Z,95494.81
2023-04-09T09:17:57.729Z,95503.53
2023-04-09T09:20:27.231Z,95493.88
2023-04-09T09:22:57.847Z,95493.53
2023-04-09T09:25:27.833Z,95487.19
2023-04-09T09:27:56.289Z,95485.19
2023-04-09T09:30:26.064Z,95493.94
2023-04-09T09:32:55.278Z,95474.25
2023-04-09T09:35:23.838Z,95477.94
2023-04-09T09:38:03.955Z,95465.25
2023-04-09T09:40:33.789Z,95474.50
2023-04-09T09:43:02.064Z,95465.03
2023-04-09T09:45:31.607Z,95451.25
2023-04-09T09:47:59.947Z,95468.28
2023-04-09T09:50:31.950Z,95461.97
2023-04-09T09:53:04.020Z,95458.28
2023-04-09T09:55:35.951Z,95447.75
2023-04-09T09:58:17.756Z,95445.75
2023-04-09T10:00:51.484Z,95389.41
2023-04-09T10:03:24.151Z,95438.75
2023-04-09T10:05:53.591Z,95441.63
2023-04-09T10:08:23.443Z,95438.59
2023-04-09T10:10:53.806Z,95412.50
2023-04-09T10:13:29.851Z,95427.72
2023-04-09T10:15:58.933Z,95414.19
2023-04-09T10:18:27.579Z,95414.72
2023-04-09T10:21:00.459Z,95419.69
2023-04-09T10:23:35.779Z,95421.47
2023-04-09T10:26:06.886Z,95415.91
2023-04-09T10:28:35.401Z,95406.97
2023-04-09T10:31:06.354Z,95412.91
2023-04-09T10:33:37.507Z,95406.88
2023-04-09T10:36:07.259Z,95403.03
2023-04-09T10:38:37.336Z,95403.03
2023-04-09T10:41:15.468Z,95401.72
2023-04-09T10:43:44.280Z,95408.34
2023-04-09T10:46:27.986Z,95397.94
2023-04-09T10:49:13.797Z,95398.69
2023-04-09T10:51:42.722Z,95392.66
2023-04-09T10:54:44.060Z,95392.09
2023-04-09T10:57:15.159Z,95392.41
2023-04-09T10:59:45.139Z,95391.09
2023-04-09T11:02:46.173Z,95392.59
2023-04-09T11:05:24.455Z,95333.72
2023-04-09T11:07:59.638Z,95388.25
2023-04-09T11:10:28.593Z,95391.78
2023-04-09T11:12:58.335Z,95394.84
2023-04-09T11:15:27.207Z,95391.88
2023-04-09T11:17:55.849Z,95387.38
2023-04-09T11:20:25.493Z,95375.59
2023-04-09T11:22:55.245Z,95370.69
2023-04-09T11:25:25.721Z,95361.66
2023-04-09T11:27:54.713Z,95388.16
2023-04-09T11:30:24.555Z,95363.69
2023-04-09T11:32:52.963Z,95310.03
2023-04-09T11:35:23.865Z,95383.13
2023-04-09T11:37:53.382Z,95370.75
2023-04-09T11:40:23.604Z,95378.91
2023-04-09T11:42:53.372Z,95383.44
2023-04-09T11:45:24.622Z,95384.50
2023-04-09T11:47:53.732Z,95370.03
2023-04-09T11:50:22.771Z,95370.81
2023-04-09T11:52:51.413Z,95377.28
2023-04-09T11:55:26.737Z,95352.13
2023-04-09T11:57:58.166Z,95369.88
2023-04-09T12:00:28.904Z,95368.13
2023-04-09T12:03:03.207Z,95369.28
2023-04-09T12:05:33.154Z,95365.09
2023-04-09T12:08:05.141Z,95319.28
2023-04-09T12:10:35.240Z,95333.06
2023-04-09T12:13:04.554Z,95359.28
2023-04-09T12:15:36.357Z,95364.72
2023-04-09T12:18:04.842Z,95361.47
2023-04-09T12:20:35.431Z,95334.81
2023-04-09T12:23:05.949Z,95333.22
2023-04-09T12:25:36.861Z,95357.84
2023-04-09T12:28:06.303Z,95357.25
2023-04-09T12:30:36.786Z,95356.75
2023-04-09T12:33:06.152Z,95342.50
2023-04-09T12:35:35.815Z,95362.28
2023-04-09T12:38:05.124Z,95351.69
2023-04-09T12:40:33.565Z,95343.44
2023-04-09T12:43:02.598Z,95336.94
2023-04-09T12:45:31.444Z,95362.19
2023-04-09T12:48:01.178Z,95327.56
2023-04-09T12:50:29.657Z,95359.84
2023-04-09T12:52:58.037Z,95359.28
2023-04-09T12:55:26.326Z,95345.31
2023-04-09T12:57:54.578Z,95351.53
2023-04-09T13:00:22.837Z,95346.09
2023-04-09T13:02:52.986Z,95328.91
2023-04-09T13:05:22.850Z,95342.38
2023-04-09T13:07:51.616Z,95332.72
2023-04-09T13:10:20.436Z,95332.31
2023-04-09T13:12:48.766Z,95338.69
2023-04-09T13:15:17.172Z,95327.94
2023-04-09T13:17:45.522Z,95330.31
2023-04-09T13:20:14.276Z,95329.25
2023-04-09T13:22:47.150Z,95323.13
2023-04-09T13:25:15.629Z,95320.06
2023-04-09T13:27:43.891Z,95293.47
2023-04-09T13:30:12.933Z,95326.56
2023-04-09T13:32:41.495Z,95325.06
2023-04-09T13:35:11.113Z,95315.25
2023-04-09T13:37:39.416Z,95317.28
2023-04-09T13:40:10.531Z,95319.97
2023-04-09T13:42:38.889Z,95312.31
2023-04-09T13:45:08.334Z,95306.56
2023-04-09T13:47:36.809Z,95304.41
2023-04-09T13:50:05.923Z,95299.25
2023-04-09T13:52:34.306Z,95302.63
2023-04-09T13:55:03.969Z,95296.88
2023-04-09T13:57:33.787Z,95299.34
2023-04-09T14:00:04.865Z,95298.75
2023-04-09T14:02:33.484Z,95304.75
2023-04-09T14:05:02.701Z,95254.97
2023-04-09T14:07:30.946Z,95305.31
2023-04-09T14:09:59.244Z,95303.06
2023-04-09T14:12:27.564Z,95297.50
2023-04-09T14:14:57.294Z,95264.28
2023-04-09T14:17:25.722Z,95250.47
2023-04-09T14:19:54.007Z,95287.22
2023-04-09T14:22:22.286Z,95283.81
2023-04-09T14:24:51.333Z,95282.06
2023-04-09T14:27:19.531Z,95281.72
2023-04-09T14:29:47.782Z,95283.78
2023-04-09T14:32:17.645Z,95280.31
2023-04-09T14:34:46.143Z,95284.50
2023-04-09T14:37:14.511Z,95283.63
2023-04-09T14:39:42.828Z,95289.44
2023-04-09T14:42:11.140Z,95282.94
2023-04-09T14:44:39.373Z,95279.19
2023-04-09T14:47:07.711Z,95274.03
2023-04-09T14:49:37.431Z,95289.22
2023-04-09T14:52:06.035Z,95281.59
2023-04-09T14:54:34.353Z,95286.53
2023-04-09T14:57:03.945Z,95272.13
2023-04-09T14:59:32.200Z,95279.00
2023-04-09T15:02:00.765Z,95286.28
2023-04-09T15:04:29.275Z,95285.75
2023-04-09T15:06:59.050Z,95268.53
2023-04-09T15:09:27.356Z,95279.81
2023-04-09T15:11:56.214Z,95280.38
2023-04-09T15:14:25.078Z,95278.28
2023-04-09T15:16:55.941Z,95276.72
2023-04-09T15:19:24.327Z,95282.19
2023-04-09T15:21:52.664Z,95289.63
2023-04-09T15:24:22.332Z,95255.59
2023-04-09T15:26:51.233Z,95275.94
2023-04-09T15:29:19.729Z,95272.13
2023-04-09T15:31:49.180Z,95277.19
2023-04-09T15:34:17.512Z,95271.13
2023-04-09T15:36:46.540Z,95257.47
2023-04-09T15:39:15.195Z,95278.72
2023-04-09T15:41:44.959Z,95274.06
2023-04-09T15:44:13.258Z,95278.91
2023-04-09T15:46:41.804Z,95264.81
2023-04-09T15:49:10.055Z,95264.91
2023-04-09T15:51:38.364Z,95278.41
2023-04-09T15:54:06.621Z,95202.50
2023-04-09T15:56:36.912Z,95235.16
2023-04-09T15:59:08.025Z,95266.53
2023-04-09T16:01:36.790Z,95264.59
2023-04-09T16:04:05.952Z,95261.06
2023-04-09T16:06:34.484Z,95275.69
2023-04-09T16:09:03.069Z,95277.06
2023-04-09T16:11:31.653Z,95276.97
2023-04-09T16:14:00.229Z,95269.34
2023-04-09T16:16:29.898Z,95269.72
2023-04-09T16:18:58.303Z,95273.94
2023-04-09T16:21:27.740Z,95279.50
2023-04-09T16:23:56.212Z,95282.53
2023-04-09T16:26:24.631Z,95270.44
2023-04-09T16:28:53.085Z,95278.31
2023-04-09T16:31:21.547Z,95287.25
2023-04-09T16:33:51.468Z,95231.41
2023-04-09T16:36:19.790Z,95280.00
2023-04-09T16:38:48.260Z,95275.38
2023-04-09T16:41:16.943Z,95286.47
2023-04-09T16:43:46.694Z,95287.13
2023-04-09T16:46:15.030Z,95287.34
2023-04-09T16:48:43.422Z,95287.66
2023-04-09T16:51:13.116Z,95260.81
2023-04-09T16:53:41.508Z,95292.19
2023-04-09T16:56:10.302Z,95291.94
2023-04-09T16:58:39.072Z,95297.94
2023-04-09T17:01:07.507Z,95302.78
2023-04-09T17:03:35.989Z,95308.88
2023-04-09T17:06:04.892Z,95308.00
2023-04-09T17:08:35.418Z,95308.72
2023-04-09T17:11:03.729Z,95311.34
2023-04-09T17:13:35.255Z,95315.56
2023-04-09T17:16:04.038Z,95325.25
2023-04-09T17:18:32.506Z,95325.50
2023-04-09T17:21:00.786Z,95320.47
2023-04-09T17:23:29.045Z,95331.88
2023-04-09T17:26:00.414Z,95340.22
2023-04-09T17:28:28.714Z,95333.69
2023-04-09T17:30:57.007Z,95343.16
2023-04-09T17:33:25.329Z,95347.66
2023-04-09T17:35:53.713Z,95348.69
2023-04-09T17:38:24.877Z,95350.31
2023-04-09T17:40:54.844Z,95353.78
2023-04-09T17:43:24.547Z,95349.69
2023-04-09T17:45:52.885Z,95360.78
2023-04-09T17:48:21.202Z,95349.22
2023-04-09T17:50:50.191Z,95327.66
2023-04-09T17:53:18.600Z,95359.50
2023-04-09T17:55:48.890Z,95363.78
2023-04-09T17:58:25.238Z,95368.78
2023-04-09T18:00:54.116Z,95375.81
2023-04-09T18:03:22.583Z,95366.69
2023-04-09T18:05:51.143Z,95377.28
2023-04-09T18:08:19.480Z,95384.22
2023-04-09T18:11:04.781Z,95377.94
2023-04-09T18:13:41.138Z,95370.84
2023-04-09T18:16:10.765Z,95397.34
2023-04-09T18:18:39.195Z,95387.00
2023-04-09T18:21:07.784Z,95402.38
2023-04-09T18:23:36.359Z,95410.59
2023-04-09T18:26:04.722Z,95415.66
2023-04-09T18:28:33.074Z,95373.00
2023-04-09T18:31:02.793Z,95425.94
2023-04-09T18:33:31.736Z,95426.28
2023-04-09T18:36:01.806Z,95421.47
2023-04-09T18:38:30.550Z,95429.78
2023-04-09T18:40:59.054Z,95430.06
2023-04-09T18:43:27.358Z,95437.19
2023-04-09T18:45:56.100Z,95442.31
2023-04-09T18:48:26.012Z,95418.53
2023-04-09T18:50:54.413Z,95396.31
2023-04-09T18:53:22.778Z,95446.06
2023-04-09T18:55:50.973Z,95436.53
2023-04-09T18:58:19.240Z,95437.38
2023-04-09T19:00:50.714Z,95393.69
2023-04-09T19:03:19.430Z,95420.69
2023-04-09T19:05:49.732Z,95436.81
2023-04-09T19:08:18.079Z,95438.66
2023-04-09T19:10:47.699Z,95369.75
2023-04-09T19:13:16.994Z,95439.38
2023-04-09T19:15:46.004Z,95424.31
2023-04-09T19:18:14.268Z,95433.94
2023-04-09T19:20:42.484Z,95441.56
2023-04-09T19:23:12.218Z,95440.16
2023-04-09T19:25:41.118Z,95421.53
2023-04-09T19:28:09.437Z,95434.13
2023-04-09T19:30:37.816Z,95430.19
2023-04-09T19:33:06.150Z,95416.94
2023-04-09T19:35:35.980Z,95420.13
2023-04-09T19:38:05.106Z,95419.09
2023-04-09T19:40:35.009Z,95406.38
2023-04-09T19:43:03.299Z,95414.59
2023-04-09T19:45:31.622Z,95425.72
2023-04-09T19:48:00.003Z,95434.19
2023-04-09T19:50:28.547Z,95417.44
2023-04-09T19:52:57.028Z,95432.59
2023-04-09T19:55:25.378Z,95419.63
2023-04-09T19:57:54.983Z,95429.16
2023-04-09T20:00:23.305Z,95427.56
2023-04-09T20:02:52.043Z,95423.88
2023-04-09T20:05:21.317Z,95429.16
2023-04-09T20:07:49.840Z,95422.53
2023-04-09T20:10:18.333Z,95418.03
2023-04-09T20:12:48.682Z,95414.88
2023-04-09T20:15:20.260Z,95428.13
2023-04-09T20:17:49.339Z,95405.25
2023-04-09T20:20:20.133Z,95421.22
2023-04-09T20:22:56.504Z,95420.16
2023-04-09T20:25:25.638Z,95383.84
2023-04-09T20:27:54.665Z,95423.34
2023-04-09T20:30:24.438Z,95418.31
2023-04-09T20:32:52.805Z,95415.41
2023-04-09T20:35:21.153Z,95417.94
2023-04-09T20:37:50.041Z,95421.22
2023-04-09T20:40:18.462Z,95407.97
2023-04-09T20:42:46.824Z,95410.63
2023-04-09T20:45:15.166Z,95417.53
2023-04-09T20:47:44.909Z,95416.97
2023-04-09T20:50:13.365Z,95421.44
2023-04-09T20:52:41.937Z,95410.09
2023-04-09T20:55:10.670Z,95417.50
2023-04-09T20:57:38.989Z,95399.50
2023-04-09T21:00:08.770Z,95408.50
2023-04-09T21:02:37.227Z,95407.16
2023-04-09T21:05:19.693Z,95406.06
2023-04-09T21:07:51.870Z,95411.31
2023-04-09T21:10:20.257Z,95351.97
2023-04-09T21:12:48.535Z,95403.09
2023-04-09T21:15:17.030Z,95402.09
2023-04-09T21:17:45.747Z,95406.13
2023-04-09T21:20:16.830Z,95410.09
2023-04-09T21:22:45.094Z,95400.22
2023-04-09T21:25:15.201Z,95410.63
2023-04-09T21:27:43.928Z,95408.44
2023-04-09T21:30:12.922Z,95408.50
2023-04-09T21:32:41.187Z,95404.75
2023-04-09T21:35:09.671Z,95398.63
2023-04-09T21:37:39.421Z,95393.69
2023-04-09T21:40:09.098Z,95396.28
2023-04-09T21:42:37.298Z,95395.47
2023-04-09T21:45:06.431Z,95391.47
2023-04-09T21:47:34.896Z,95394.09
2023-04-09T21:50:04.136Z,95394.91
2023-04-09T21:52:32.583Z,95394.66
2023-04-09T21:55:02.331Z,95395.16
2023-04-09T21:57:30.629Z,95397.78
2023-04-09T22:00:00.504Z,95391.63
2023-04-09T22:02:29.957Z,95395.66
2023-04-09T22:05:01.158Z,95395.34
2023-04-09T22:07:29.799Z,95388.00
2023-04-09T22:09:58.786Z,95382.44
2023-04-09T22:12:28.441Z,95382.94
2023-04-09T22:14:56.737Z,95383.63
2023-04-09T22:17:25.080Z,95386.97
2023-04-09T22:19:53.387Z,95371.63
2023-04-09T22:22:21.780Z,95382.94
2023-04-09T22:24:50.065Z,95378.19
2023-04-09T22:27:18.441Z,95375.22
2023-04-09T22:29:48.114Z,95373.66
2023-04-09T22:32:16.853Z,95380.88
2023-04-09T22:34:45.172Z,95382.69
2023-04-09T22:37:13.618Z,95377.94
2023-04-09T22:39:41.888Z,95382.13
2023-04-09T22:42:10.744Z,95387.72
2023-04-09T22:44:39.263Z,95374.25
2023-04-09T22:47:08.930Z,95376.38
2023-04-09T22:49:37.228Z,95370.22
2023-04-09T22:52:05.790Z,95373.44
2023-04-09T22:54:34.091Z,95353.81
2023-04-09T22:57:03.185Z,95362.28
2023-04-09T22:59:39.936Z,95369.22
2023-04-09T23:02:10.545Z,95372.44
2023-04-09T23:04:38.899Z,95369.22
2023-04-09T23:07:08.121Z,95363.69
2023-04-09T23:09:36.491Z,95365.00
2023-04-09T23:12:04.740Z,95359.72
2023-04-09T23:14:33.027Z,95342.09
2023-04-09T23:17:01.329Z,95348.22
2023-04-09T23:19:30.961Z,95351.88
2023-04-09T23:21:59.251Z,95345.34
2023-04-09T23:24:27.604Z,95341.38
2023-04-09T23:26:56.273Z,95338.84
2023-04-09T23:29:24.480Z,95339.75
2023-04-09T23:31:52.921Z,95338.16
2023-04-09T23:34:21.351Z,95339.75
2023-04-09T23:36:51.772Z,95343.31
2023-04-09T23:39:20.099Z,95337.44
2023-04-09T23:41:48.291Z,95335.59
2023-04-09T23:44:16.629Z,95340.66
2023-04-09T23:46:44.962Z,95336.94
2023-04-09T23:49:13.308Z,95327.66
2023-04-09T23:51:41.533Z,95325.38
2023-04-09T23:54:11.759Z,95327.50
2023-04-09T23:56:40.051Z,95323.50
2023-04-09T23:59:08.345Z,95320.56
